sensor_id;sensor_type;location;lat;lon;timestamp;temperature;humidity
14357;DHT22;7262;48.764;9.166;2023-07-16T00:01:10;19.90;99.90
14357;DHT22;7262;48.764;9.166;2023-07-16T00:03:38;19.80;99.90
14357;DHT22;7262;48.764;9.166;2023-07-16T00:06:05;19.80;99.90
14357;DHT22;7262;48.764;9.166;2023-07-16T00:08:31;19.80;99.90
14357;DHT22;7262;48.764;9.166;2023-07-16T00:10:59;19.60;99.90
14357;DHT22;7262;48.764;9.166;2023-07-16T00:13:38;19.60;99.90
14357;DHT22;7262;48.764;9.166;2023-07-16T00:16:15;19.60;99.90
14357;DHT22;7262;48.764;9.166;2023-07-16T00:18:43;19.50;99.90
14357;DHT22;7262;48.764;9.166;2023-07-16T00:21:11;19.50;99.90
14357;DHT22;7262;48.764;9.166;2023-07-16T00:23:38;19.50;99.90
14357;DHT22;7262;48.764;9.166;2023-07-16T00:26:05;19.50;99.90
14357;DHT22;7262;48.764;9.166;2023-07-16T00:28:36;19.50;99.90
14357;DHT22;7262;48.764;9.166;2023-07-16T00:31:04;19.40;99.90
14357;DHT22;7262;48.764;9.166;2023-07-16T00:33:31;19.40;99.90
14357;DHT22;7262;48.764;9.166;2023-07-16T00:35:58;19.30;99.90
14357;DHT22;7262;48.764;9.166;2023-07-16T00:38:24;19.30;99.90
14357;DHT22;7262;48.764;9.166;2023-07-16T00:40:55;19.30;99.90
14357;DHT22;7262;48.764;9.166;2023-07-16T00:43:22;19.40;99.90
14357;DHT22;7262;48.764;9.166;2023-07-16T00:45:51;19.40;99.90
14357;DHT22;7262;48.764;9.166;2023-07-16T00:48:19;19.40;99.90
14357;DHT22;7262;48.764;9.166;2023-07-16T00:50:46;19.50;99.90
14357;DHT22;7262;48.764;9.166;2023-07-16T00:53:13;19.50;99.90
14357;DHT22;7262;48.764;9.166;2023-07-16T00:55:39;19.40;99.90
14357;DHT22;7262;48.764;9.166;2023-07-16T00:58:07;19.40;99.90
14357;DHT22;7262;48.764;9.166;2023-07-16T01:00:34;19.50;99.90
14357;DHT22;7262;48.764;9.166;2023-07-16T01:03:03;19.50;99.90
14357;DHT22;7262;48.764;9.166;2023-07-16T01:05:34;19.50;99.90
14357;DHT22;7262;48.764;9.166;2023-07-16T01:08:04;19.40;99.90
14357;DHT22;7262;48.764;9.166;2023-07-16T01:10:32;19.40;99.90
14357;DHT22;7262;48.764;9.166;2023-07-16T01:13:01;19.40;99.90
14357;DHT22;7262;48.764;9.166;2023-07-16T01:15:28;19.40;99.90
14357;DHT22;7262;48.764;9.166;2023-07-16T01:17:55;19.40;99.90
14357;DHT22;7262;48.764;9.166;2023-07-16T01:20:23;19.50;99.90
14357;DHT22;7262;48.764;9.166;2023-07-16T01:25:37;19.50;99.90
14357;DHT22;7262;48.764;9.166;2023-07-16T01:28:14;19.50;99.90
14357;DHT22;7262;48.764;9.166;2023-07-16T01:30:47;19.50;99.90
14357;DHT22;7262;48.764;9.166;2023-07-16T01:33:16;19.50;99.90
14357;DHT22;7262;48.764;9.166;2023-07-16T01:35:43;19.40;99.90
14357;DHT22;7262;48.764;9.166;2023-07-16T01:38:10;19.40;99.90
14357;DHT22;7262;48.764;9.166;2023-07-16T01:40:37;19.40;99.90
14357;DHT22;7262;48.764;9.166;2023-07-16T01:43:04;19.30;99.90
14357;DHT22;7262;48.764;9.166;2023-07-16T01:45:31;19.30;99.90
14357;DHT22;7262;48.764;9.166;2023-07-16T01:48:03;19.10;99.90
14357;DHT22;7262;48.764;9.166;2023-07-16T01:50:32;19.00;99.90
14357;DHT22;7262;48.764;9.166;2023-07-16T01:52:58;18.90;99.90
14357;DHT22;7262;48.764;9.166;2023-07-16T01:55:25;18.90;99.90
14357;DHT22;7262;48.764;9.166;2023-07-16T01:57:53;18.90;99.90
14357;DHT22;7262;48.764;9.166;2023-07-16T02:00:21;18.90;99.90
14357;DHT22;7262;48.764;9.166;2023-07-16T02:02:48;18.90;99.90
14357;DHT22;7262;48.764;9.166;2023-07-16T02:05:16;18.80;99.90
14357;DHT22;7262;48.764;9.166;2023-07-16T02:07:43;18.70;99.90
14357;DHT22;7262;48.764;9.166;2023-07-16T02:10:10;18.60;99.90
14357;DHT22;7262;48.764;9.166;2023-07-16T02:12:37;18.50;99.90
14357;DHT22;7262;48.764;9.166;2023-07-16T02:15:05;18.60;99.90
14357;DHT22;7262;48.764;9.166;2023-07-16T02:17:31;18.60;99.90
14357;DHT22;7262;48.764;9.166;2023-07-16T02:19:58;18.60;99.90
14357;DHT22;7262;48.764;9.166;2023-07-16T02:22:27;18.60;99.90
14357;DHT22;7262;48.764;9.166;2023-07-16T02:24:53;18.60;99.90
14357;DHT22;7262;48.764;9.166;2023-07-16T02:27:20;18.50;99.90
14357;DHT22;7262;48.764;9.166;2023-07-16T02:29:47;18.50;99.90
14357;DHT22;7262;48.764;9.166;2023-07-16T02:32:14;18.50;99.90
14357;DHT22;7262;48.764;9.166;2023-07-16T02:34:41;18.60;99.90
14357;DHT22;7262;48.764;9.166;2023-07-16T02:37:08;18.70;99.90
14357;DHT22;7262;48.764;9.166;2023-07-16T02:39:37;18.80;99.90
14357;DHT22;7262;48.764;9.166;2023-07-16T02:42:04;18.70;99.90
14357;DHT22;7262;48.764;9.166;2023-07-16T02:44:31;18.70;99.90
14357;DHT22;7262;48.764;9.166;2023-07-16T02:46:58;18.60;99.90
14357;DHT22;7262;48.764;9.166;2023-07-16T02:49:25;18.70;99.90
14357;DHT22;7262;48.764;9.166;2023-07-16T02:51:53;18.70;99.90
14357;DHT22;7262;48.764;9.166;2023-07-16T02:54:20;18.80;99.90
14357;DHT22;7262;48.764;9.166;2023-07-16T02:56:49;18.70;99.90
14357;DHT22;7262;48.764;9.166;2023-07-16T02:59:16;18.70;99.90
14357;DHT22;7262;48.764;9.166;2023-07-16T03:01:43;18.70;99.90
14357;DHT22;7262;48.764;9.166;2023-07-16T03:04:09;18.70;99.90
14357;DHT22;7262;48.764;9.166;2023-07-16T03:06:36;18.70;99.90
14357;DHT22;7262;48.764;9.166;2023-07-16T03:09:03;18.60;99.90
14357;DHT22;7262;48.764;9.166;2023-07-16T03:11:30;18.70;99.90
14357;DHT22;7262;48.764;9.166;2023-07-16T03:13:58;18.60;99.90
14357;DHT22;7262;48.764;9.166;2023-07-16T03:16:25;18.60;99.90
14357;DHT22;7262;48.764;9.166;2023-07-16T03:18:52;18.60;99.90
14357;DHT22;7262;48.764;9.166;2023-07-16T03:21:21;18.50;99.90
14357;DHT22;7262;48.764;9.166;2023-07-16T03:23:47;18.50;99.90
14357;DHT22;7262;48.764;9.166;2023-07-16T03:26:14;18.60;99.90
14357;DHT22;7262;48.764;9.166;2023-07-16T03:28:41;18.60;99.90
14357;DHT22;7262;48.764;9.166;2023-07-16T03:31:09;18.60;99.90
14357;DHT22;7262;48.764;9.166;2023-07-16T03:33:36;18.60;99.90
14357;DHT22;7262;48.764;9.166;2023-07-16T03:36:03;18.60;99.90
14357;DHT22;7262;48.764;9.166;2023-07-16T03:38:30;18.60;99.90
14357;DHT22;7262;48.764;9.166;2023-07-16T03:40:57;18.60;99.90
14357;DHT22;7262;48.764;9.166;2023-07-16T03:43:24;18.60;99.90
14357;DHT22;7262;48.764;9.166;2023-07-16T03:45:51;18.70;99.90
14357;DHT22;7262;48.764;9.166;2023-07-16T03:48:19;18.70;99.90
14357;DHT22;7262;48.764;9.166;2023-07-16T03:50:47;18.70;99.90
14357;DHT22;7262;48.764;9.166;2023-07-16T03:53:14;18.70;99.90
14357;DHT22;7262;48.764;9.166;2023-07-16T03:55:43;18.70;99.90
14357;DHT22;7262;48.764;9.166;2023-07-16T03:58:09;18.70;99.90
14357;DHT22;7262;48.764;9.166;2023-07-16T04:00:36;18.70;99.90
14357;DHT22;7262;48.764;9.166;2023-07-16T04:03:03;18.70;99.90
14357;DHT22;7262;48.764;9.166;2023-07-16T04:05:32;18.70;99.90
14357;DHT22;7262;48.764;9.166;2023-07-16T04:07:58;18.60;99.90
14357;DHT22;7262;48.764;9.166;2023-07-16T04:10:25;18.70;99.90
14357;DHT22;7262;48.764;9.166;2023-07-16T04:12:52;18.60;99.90
14357;DHT22;7262;48.764;9.166;2023-07-16T04:15:19;18.60;99.90
14357;DHT22;7262;48.764;9.166;2023-07-16T04:17:46;18.60;99.90
14357;DHT22;7262;48.764;9.166;2023-07-16T04:20:13;18.60;99.90
14357;DHT22;7262;48.764;9.166;2023-07-16T04:22:41;18.50;99.90
14357;DHT22;7262;48.764;9.166;2023-07-16T04:25:08;18.60;99.90
14357;DHT22;7262;48.764;9.166;2023-07-16T04:27:35;18.60;99.90
14357;DHT22;7262;48.764;9.166;2023-07-16T04:30:02;18.60;99.90
14357;DHT22;7262;48.764;9.166;2023-07-16T04:32:29;18.50;99.90
14357;DHT22;7262;48.764;9.166;2023-07-16T04:34:56;18.50;99.90
14357;DHT22;7262;48.764;9.166;2023-07-16T04:37:23;18.50;99.90
14357;DHT22;7262;48.764;9.166;2023-07-16T04:39:51;18.50;99.90
14357;DHT22;7262;48.764;9.166;2023-07-16T04:42:17;18.50;99.90
14357;DHT22;7262;48.764;9.166;2023-07-16T04:47:21;18.40;99.90
14357;DHT22;7262;48.764;9.166;2023-07-16T04:49:48;18.40;99.90
14357;DHT22;7262;48.764;9.166;2023-07-16T04:52:15;18.40;99.90
14357;DHT22;7262;48.764;9.166;2023-07-16T04:54:42;18.50;99.90
14357;DHT22;7262;48.764;9.166;2023-07-16T04:59:48;18.40;99.90
14357;DHT22;7262;48.764;9.166;2023-07-16T05:02:18;18.40;99.90
14357;DHT22;7262;48.764;9.166;2023-07-16T05:04:45;18.50;99.90
14357;DHT22;7262;48.764;9.166;2023-07-16T05:07:14;18.50;99.90
14357;DHT22;7262;48.764;9.166;2023-07-16T05:09:42;18.50;99.90
14357;DHT22;7262;48.764;9.166;2023-07-16T05:12:09;18.50;99.90
14357;DHT22;7262;48.764;9.166;2023-07-16T05:14:42;18.50;99.90
14357;DHT22;7262;48.764;9.166;2023-07-16T05:17:11;18.50;99.90
14357;DHT22;7262;48.764;9.166;2023-07-16T05:19:37;18.60;99.90
14357;DHT22;7262;48.764;9.166;2023-07-16T05:22:04;18.60;99.90
14357;DHT22;7262;48.764;9.166;2023-07-16T05:24:31;18.60;99.90
14357;DHT22;7262;48.764;9.166;2023-07-16T05:26:59;18.80;99.90
14357;DHT22;7262;48.764;9.166;2023-07-16T05:29:27;18.70;99.90
14357;DHT22;7262;48.764;9.166;2023-07-16T05:31:55;18.70;99.90
14357;DHT22;7262;48.764;9.166;2023-07-16T05:34:23;18.70;99.90
14357;DHT22;7262;48.764;9.166;2023-07-16T05:36:52;18.70;99.90
14357;DHT22;7262;48.764;9.166;2023-07-16T05:39:19;18.80;99.90
14357;DHT22;7262;48.764;9.166;2023-07-16T05:41:47;18.90;99.90
14357;DHT22;7262;48.764;9.166;2023-07-16T05:44:13;19.00;99.90
14357;DHT22;7262;48.764;9.166;2023-07-16T05:46:40;19.20;99.90
14357;DHT22;7262;48.764;9.166;2023-07-16T05:49:07;19.40;99.90
14357;DHT22;7262;48.764;9.166;2023-07-16T05:51:35;19.50;99.90
14357;DHT22;7262;48.764;9.166;2023-07-16T05:54:03;19.70;99.90
14357;DHT22;7262;48.764;9.166;2023-07-16T05:56:33;19.80;99.90
14357;DHT22;7262;48.764;9.166;2023-07-16T05:59:01;19.80;99.90
14357;DHT22;7262;48.764;9.166;2023-07-16T06:01:28;19.80;99.90
14357;DHT22;7262;48.764;9.166;2023-07-16T06:03:55;19.80;99.90
14357;DHT22;7262;48.764;9.166;2023-07-16T06:11:34;20.00;99.90
14357;DHT22;7262;48.764;9.166;2023-07-16T06:14:04;20.00;99.90
14357;DHT22;7262;48.764;9.166;2023-07-16T06:16:30;19.90;99.90
14357;DHT22;7262;48.764;9.166;2023-07-16T06:18:57;19.90;99.90
14357;DHT22;7262;48.764;9.166;2023-07-16T06:26:37;19.50;99.90
14357;DHT22;7262;48.764;9.166;2023-07-16T06:31:41;19.50;99.90
14357;DHT22;7262;48.764;9.166;2023-07-16T06:34:08;19.60;99.90
14357;DHT22;7262;48.764;9.166;2023-07-16T06:36:35;19.70;99.90
14357;DHT22;7262;48.764;9.166;2023-07-16T06:49:44;19.90;99.90
14357;DHT22;7262;48.764;9.166;2023-07-16T06:52:18;20.60;99.90
14357;DHT22;7262;48.764;9.166;2023-07-16T06:54:48;20.70;99.90
14357;DHT22;7262;48.764;9.166;2023-07-16T06:59:50;21.00;99.90
14357;DHT22;7262;48.764;9.166;2023-07-16T07:02:17;21.20;99.90
14357;DHT22;7262;48.764;9.166;2023-07-16T07:04:46;21.70;99.90
14357;DHT22;7262;48.764;9.166;2023-07-16T07:07:12;22.30;99.90
14357;DHT22;7262;48.764;9.166;2023-07-16T07:09:39;23.00;99.90
14357;DHT22;7262;48.764;9.166;2023-07-16T07:12:06;24.00;99.90
14357;DHT22;7262;48.764;9.166;2023-07-16T07:14:33;25.20;99.90
14357;DHT22;7262;48.764;9.166;2023-07-16T07:17:14;26.60;99.90
14357;DHT22;7262;48.764;9.166;2023-07-16T07:19:57;27.10;99.90
14357;DHT22;7262;48.764;9.166;2023-07-16T07:22:24;27.80;99.90
14357;DHT22;7262;48.764;9.166;2023-07-16T07:25:06;28.50;99.90
14357;DHT22;7262;48.764;9.166;2023-07-16T07:30:22;29.10;99.90
14357;DHT22;7262;48.764;9.166;2023-07-16T07:32:49;29.70;99.90
14357;DHT22;7262;48.764;9.166;2023-07-16T07:35:17;29.10;99.90
14357;DHT22;7262;48.764;9.166;2023-07-16T07:37:44;29.50;99.90
14357;DHT22;7262;48.764;9.166;2023-07-16T07:40:12;29.00;99.90
14357;DHT22;7262;48.764;9.166;2023-07-16T07:42:39;28.70;99.90
14357;DHT22;7262;48.764;9.166;2023-07-16T07:45:06;27.90;99.90
14357;DHT22;7262;48.764;9.166;2023-07-16T07:47:33;27.20;99.90
14357;DHT22;7262;48.764;9.166;2023-07-16T07:50:00;26.40;99.90
14357;DHT22;7262;48.764;9.166;2023-07-16T07:52:29;26.30;99.90
14357;DHT22;7262;48.764;9.166;2023-07-16T07:54:55;25.60;99.90
14357;DHT22;7262;48.764;9.166;2023-07-16T07:57:22;25.10;99.90
14357;DHT22;7262;48.764;9.166;2023-07-16T07:59:49;25.50;99.90
14357;DHT22;7262;48.764;9.166;2023-07-16T08:02:20;26.70;99.90
14357;DHT22;7262;48.764;9.166;2023-07-16T08:04:49;27.60;99.90
14357;DHT22;7262;48.764;9.166;2023-07-16T08:07:16;28.20;99.90
14357;DHT22;7262;48.764;9.166;2023-07-16T08:12:28;29.60;99.90
14357;DHT22;7262;48.764;9.166;2023-07-16T08:14:56;30.20;99.90
14357;DHT22;7262;48.764;9.166;2023-07-16T08:20:09;29.50;99.90
14357;DHT22;7262;48.764;9.166;2023-07-16T08:22:42;28.80;99.90
14357;DHT22;7262;48.764;9.166;2023-07-16T08:41:30;26.00;99.90
14357;DHT22;7262;48.764;9.166;2023-07-16T08:54:19;26.80;99.90
14357;DHT22;7262;48.764;9.166;2023-07-16T08:56:59;26.00;99.90
14357;DHT22;7262;48.764;9.166;2023-07-16T09:02:02;26.30;99.90
14357;DHT22;7262;48.764;9.166;2023-07-16T09:09:39;30.20;99.90
14357;DHT22;7262;48.764;9.166;2023-07-16T09:12:10;30.10;99.90
14357;DHT22;7262;48.764;9.166;2023-07-16T09:14:40;30.40;99.90
14357;DHT22;7262;48.764;9.166;2023-07-16T09:19:45;31.30;99.90
14357;DHT22;7262;48.764;9.166;2023-07-16T09:22:26;30.90;99.90
14357;DHT22;7262;48.764;9.166;2023-07-16T09:24:55;31.20;99.90
14357;DHT22;7262;48.764;9.166;2023-07-16T09:27:28;31.40;99.90
14357;DHT22;7262;48.764;9.166;2023-07-16T09:30:06;32.70;99.90
14357;DHT22;7262;48.764;9.166;2023-07-16T09:32:35;31.70;99.60
14357;DHT22;7262;48.764;9.166;2023-07-16T09:35:05;30.50;99.90
14357;DHT22;7262;48.764;9.166;2023-07-16T09:37:32;29.50;99.90
14357;DHT22;7262;48.764;9.166;2023-07-16T09:40:00;27.90;99.90
14357;DHT22;7262;48.764;9.166;2023-07-16T09:42:30;27.50;99.90
14357;DHT22;7262;48.764;9.166;2023-07-16T09:44:58;27.10;99.90
14357;DHT22;7262;48.764;9.166;2023-07-16T09:47:26;27.90;99.90
14357;DHT22;7262;48.764;9.166;2023-07-16T09:49:54;29.20;99.90
14357;DHT22;7262;48.764;9.166;2023-07-16T09:52:22;29.60;99.90
14357;DHT22;7262;48.764;9.166;2023-07-16T10:25:30;29.60;99.90
14357;DHT22;7262;48.764;9.166;2023-07-16T10:27:58;29.50;99.90
14357;DHT22;7262;48.764;9.166;2023-07-16T10:30:25;28.70;99.90
14357;DHT22;7262;48.764;9.166;2023-07-16T10:32:52;28.40;99.90
14357;DHT22;7262;48.764;9.166;2023-07-16T10:35:19;28.30;99.90
14357;DHT22;7262;48.764;9.166;2023-07-16T10:37:46;29.10;99.90
14357;DHT22;7262;48.764;9.166;2023-07-16T10:40:15;29.70;99.90
14357;DHT22;7262;48.764;9.166;2023-07-16T10:42:44;30.40;99.90
14357;DHT22;7262;48.764;9.166;2023-07-16T10:45:16;31.10;99.90
14357;DHT22;7262;48.764;9.166;2023-07-16T10:47:50;30.90;99.70
14357;DHT22;7262;48.764;9.166;2023-07-16T10:50:21;30.20;99.90
14357;DHT22;7262;48.764;9.166;2023-07-16T10:52:50;29.20;99.90
14357;DHT22;7262;48.764;9.166;2023-07-16T10:55:18;29.70;99.90
14357;DHT22;7262;48.764;9.166;2023-07-16T10:57:52;30.30;99.90
14357;DHT22;7262;48.764;9.166;2023-07-16T11:02:58;30.70;99.90
14357;DHT22;7262;48.764;9.166;2023-07-16T11:05:25;30.80;99.50
14357;DHT22;7262;48.764;9.166;2023-07-16T11:07:52;30.80;99.40
14357;DHT22;7262;48.764;9.166;2023-07-16T11:10:19;30.60;99.00
14357;DHT22;7262;48.764;9.166;2023-07-16T11:12:49;30.10;99.00
14357;DHT22;7262;48.764;9.166;2023-07-16T11:15:17;29.90;99.00
14357;DHT22;7262;48.764;9.166;2023-07-16T11:17:48;30.40;99.20
14357;DHT22;7262;48.764;9.166;2023-07-16T11:20:15;30.40;98.80
14357;DHT22;7262;48.764;9.166;2023-07-16T11:22:42;30.60;98.70
14357;DHT22;7262;48.764;9.166;2023-07-16T11:25:12;29.50;99.10
14357;DHT22;7262;48.764;9.166;2023-07-16T11:27:40;28.80;99.90
14357;DHT22;7262;48.764;9.166;2023-07-16T11:30:10;28.80;99.90
14357;DHT22;7262;48.764;9.166;2023-07-16T11:32:37;29.20;99.90
14357;DHT22;7262;48.764;9.166;2023-07-16T11:35:06;29.20;99.90
14357;DHT22;7262;48.764;9.166;2023-07-16T11:37:34;29.20;99.90
14357;DHT22;7262;48.764;9.166;2023-07-16T11:40:02;28.60;99.90
14357;DHT22;7262;48.764;9.166;2023-07-16T11:42:30;28.40;99.90
14357;DHT22;7262;48.764;9.166;2023-07-16T11:44:57;29.00;99.90
14357;DHT22;7262;48.764;9.166;2023-07-16T11:47:25;29.60;99.90
14357;DHT22;7262;48.764;9.166;2023-07-16T11:49:52;30.50;99.60
14357;DHT22;7262;48.764;9.166;2023-07-16T11:52:20;30.00;99.90
14357;DHT22;7262;48.764;9.166;2023-07-16T11:54:47;30.30;99.40
14357;DHT22;7262;48.764;9.166;2023-07-16T11:57:14;30.90;99.40
14357;DHT22;7262;48.764;9.166;2023-07-16T11:59:41;30.60;98.80
14357;DHT22;7262;48.764;9.166;2023-07-16T12:02:08;30.70;99.30
14357;DHT22;7262;48.764;9.166;2023-07-16T12:04:36;31.30;98.10
14357;DHT22;7262;48.764;9.166;2023-07-16T12:07:03;31.40;98.00
14357;DHT22;7262;48.764;9.166;2023-07-16T12:09:31;31.70;97.40
14357;DHT22;7262;48.764;9.166;2023-07-16T12:11:59;31.80;97.30
14357;DHT22;7262;48.764;9.166;2023-07-16T12:14:28;32.10;97.30
14357;DHT22;7262;48.764;9.166;2023-07-16T12:16:55;32.40;96.00
14357;DHT22;7262;48.764;9.166;2023-07-16T12:19:22;31.20;96.60
14357;DHT22;7262;48.764;9.166;2023-07-16T12:21:53;31.50;96.60
14357;DHT22;7262;48.764;9.166;2023-07-16T12:24:20;32.10;96.20
14357;DHT22;7262;48.764;9.166;2023-07-16T12:26:46;32.40;96.30
14357;DHT22;7262;48.764;9.166;2023-07-16T12:29:13;32.70;95.70
14357;DHT22;7262;48.764;9.166;2023-07-16T12:31:40;32.90;95.10
14357;DHT22;7262;48.764;9.166;2023-07-16T12:34:07;33.10;95.20
14357;DHT22;7262;48.764;9.166;2023-07-16T12:39:21;33.80;94.50
14357;DHT22;7262;48.764;9.166;2023-07-16T12:41:49;33.70;93.50
14357;DHT22;7262;48.764;9.166;2023-07-16T12:46:51;34.40;93.10
14357;DHT22;7262;48.764;9.166;2023-07-16T12:49:18;34.70;92.30
14357;DHT22;7262;48.764;9.166;2023-07-16T12:51:46;34.70;92.40
14357;DHT22;7262;48.764;9.166;2023-07-16T12:54:13;34.50;92.10
14357;DHT22;7262;48.764;9.166;2023-07-16T12:56:41;34.30;91.90
14357;DHT22;7262;48.764;9.166;2023-07-16T12:59:08;33.50;92.70
14357;DHT22;7262;48.764;9.166;2023-07-16T13:01:36;32.70;93.10
14357;DHT22;7262;48.764;9.166;2023-07-16T13:04:03;32.70;93.70
14357;DHT22;7262;48.764;9.166;2023-07-16T13:06:31;33.10;93.30
14357;DHT22;7262;48.764;9.166;2023-07-16T13:08:58;33.30;93.40
14357;DHT22;7262;48.764;9.166;2023-07-16T13:11:24;32.80;92.90
14357;DHT22;7262;48.764;9.166;2023-07-16T13:16:31;30.80;94.70
14357;DHT22;7262;48.764;9.166;2023-07-16T13:39:41;32.40;95.10
14357;DHT22;7262;48.764;9.166;2023-07-16T13:42:10;33.10;93.40
14357;DHT22;7262;48.764;9.166;2023-07-16T13:47:29;33.20;93.90
14357;DHT22;7262;48.764;9.166;2023-07-16T13:57:43;32.80;93.30
14357;DHT22;7262;48.764;9.166;2023-07-16T14:20:56;29.90;96.80
14357;DHT22;7262;48.764;9.166;2023-07-16T14:25:58;28.60;99.00
14357;DHT22;7262;48.764;9.166;2023-07-16T14:30:57;28.00;99.90
14357;DHT22;7262;48.764;9.166;2023-07-16T14:33:24;27.90;99.90
14357;DHT22;7262;48.764;9.166;2023-07-16T14:35:51;27.70;99.90
14357;DHT22;7262;48.764;9.166;2023-07-16T14:46:12;28.30;99.90
14357;DHT22;7262;48.764;9.166;2023-07-16T14:48:41;28.50;99.90
14357;DHT22;7262;48.764;9.166;2023-07-16T14:51:07;28.70;99.90
14357;DHT22;7262;48.764;9.166;2023-07-16T14:53:34;28.90;99.90
14357;DHT22;7262;48.764;9.166;2023-07-16T14:56:01;28.80;99.90
14357;DHT22;7262;48.764;9.166;2023-07-16T14:58:29;28.40;99.90
14357;DHT22;7262;48.764;9.166;2023-07-16T15:00:58;28.00;99.90
14357;DHT22;7262;48.764;9.166;2023-07-16T15:03:30;27.80;99.90
14357;DHT22;7262;48.764;9.166;2023-07-16T15:05:57;27.40;99.90
14357;DHT22;7262;48.764;9.166;2023-07-16T15:08:25;27.20;99.90
14357;DHT22;7262;48.764;9.166;2023-07-16T15:10:52;27.10;99.90
14357;DHT22;7262;48.764;9.166;2023-07-16T15:13:20;27.10;99.90
14357;DHT22;7262;48.764;9.166;2023-07-16T15:15:47;26.70;99.90
14357;DHT22;7262;48.764;9.166;2023-07-16T15:18:15;26.50;99.90
14357;DHT22;7262;48.764;9.166;2023-07-16T15:20:43;26.60;99.90
14357;DHT22;7262;48.764;9.166;2023-07-16T15:23:10;26.80;99.90
14357;DHT22;7262;48.764;9.166;2023-07-16T15:25:37;26.80;99.90
14357;DHT22;7262;48.764;9.166;2023-07-16T15:30:39;26.90;99.90
14357;DHT22;7262;48.764;9.166;2023-07-16T15:33:06;26.80;99.90
14357;DHT22;7262;48.764;9.166;2023-07-16T15:35:33;27.10;99.90
14357;DHT22;7262;48.764;9.166;2023-07-16T15:38:05;27.30;99.90
14357;DHT22;7262;48.764;9.166;2023-07-16T15:40:33;27.90;99.90
14357;DHT22;7262;48.764;9.166;2023-07-16T15:43:00;28.30;99.90
14357;DHT22;7262;48.764;9.166;2023-07-16T15:45:27;28.40;99.90
14357;DHT22;7262;48.764;9.166;2023-07-16T15:47:54;28.40;99.90
14357;DHT22;7262;48.764;9.166;2023-07-16T15:50:22;28.40;99.90
14357;DHT22;7262;48.764;9.166;2023-07-16T15:52:49;28.30;99.90
14357;DHT22;7262;48.764;9.166;2023-07-16T15:55:17;28.50;99.90
14357;DHT22;7262;48.764;9.166;2023-07-16T15:57:44;28.20;99.90
14357;DHT22;7262;48.764;9.166;2023-07-16T16:00:11;27.80;99.90
14357;DHT22;7262;48.764;9.166;2023-07-16T16:02:41;27.60;99.90
14357;DHT22;7262;48.764;9.166;2023-07-16T16:07:43;27.70;99.90
14357;DHT22;7262;48.764;9.166;2023-07-16T16:10:14;27.70;99.90
14357;DHT22;7262;48.764;9.166;2023-07-16T16:12:43;27.70;99.90
14357;DHT22;7262;48.764;9.166;2023-07-16T16:15:09;27.70;99.90
14357;DHT22;7262;48.764;9.166;2023-07-16T16:17:36;27.50;99.90
14357;DHT22;7262;48.764;9.166;2023-07-16T16:20:05;27.50;99.90
14357;DHT22;7262;48.764;9.166;2023-07-16T16:22:33;27.30;99.90
14357;DHT22;7262;48.764;9.166;2023-07-16T16:24:59;27.10;99.90
14357;DHT22;7262;48.764;9.166;2023-07-16T16:27:30;26.90;99.90
14357;DHT22;7262;48.764;9.166;2023-07-16T16:29:58;26.70;99.90
14357;DHT22;7262;48.764;9.166;2023-07-16T16:32:25;26.40;99.90
14357;DHT22;7262;48.764;9.166;2023-07-16T16:34:54;26.30;99.90
14357;DHT22;7262;48.764;9.166;2023-07-16T16:37:27;26.20;99.90
14357;DHT22;7262;48.764;9.166;2023-07-16T16:39:54;26.20;99.90
14357;DHT22;7262;48.764;9.166;2023-07-16T16:42:23;26.20;99.90
14357;DHT22;7262;48.764;9.166;2023-07-16T16:44:49;26.10;99.90
14357;DHT22;7262;48.764;9.166;2023-07-16T16:47:18;26.10;99.90
14357;DHT22;7262;48.764;9.166;2023-07-16T16:49:45;26.10;99.90
14357;DHT22;7262;48.764;9.166;2023-07-16T16:52:11;26.00;99.90
14357;DHT22;7262;48.764;9.166;2023-07-16T16:54:38;26.10;99.90
14357;DHT22;7262;48.764;9.166;2023-07-16T16:57:05;26.00;99.90
14357;DHT22;7262;48.764;9.166;2023-07-16T16:59:34;25.80;99.90
14357;DHT22;7262;48.764;9.166;2023-07-16T17:02:01;25.90;99.90
14357;DHT22;7262;48.764;9.166;2023-07-16T17:07:09;25.90;99.90
14357;DHT22;7262;48.764;9.166;2023-07-16T17:09:36;25.90;99.90
14357;DHT22;7262;48.764;9.166;2023-07-16T17:12:03;25.80;99.90
14357;DHT22;7262;48.764;9.166;2023-07-16T17:14:31;25.80;99.90
14357;DHT22;7262;48.764;9.166;2023-07-16T17:16:58;25.70;99.90
14357;DHT22;7262;48.764;9.166;2023-07-16T17:19:25;25.50;99.90
14357;DHT22;7262;48.764;9.166;2023-07-16T17:21:52;25.30;99.90
14357;DHT22;7262;48.764;9.166;2023-07-16T17:24:21;25.50;99.90
14357;DHT22;7262;48.764;9.166;2023-07-16T17:26:48;25.70;99.90
14357;DHT22;7262;48.764;9.166;2023-07-16T17:29:15;25.70;99.90
14357;DHT22;7262;48.764;9.166;2023-07-16T17:31:42;25.50;99.90
14357;DHT22;7262;48.764;9.166;2023-07-16T17:34:09;25.50;99.90
14357;DHT22;7262;48.764;9.166;2023-07-16T17:36:36;25.40;99.90
14357;DHT22;7262;48.764;9.166;2023-07-16T17:39:05;25.20;99.90
14357;DHT22;7262;48.764;9.166;2023-07-16T17:41:37;25.00;99.90
14357;DHT22;7262;48.764;9.166;2023-07-16T17:44:04;25.00;99.90
14357;DHT22;7262;48.764;9.166;2023-07-16T17:46:31;25.00;99.90
14357;DHT22;7262;48.764;9.166;2023-07-16T17:48:58;25.10;99.90
14357;DHT22;7262;48.764;9.166;2023-07-16T17:51:27;25.00;99.90
14357;DHT22;7262;48.764;9.166;2023-07-16T17:53:54;25.00;99.90
14357;DHT22;7262;48.764;9.166;2023-07-16T17:56:21;24.90;99.90
14357;DHT22;7262;48.764;9.166;2023-07-16T17:58:50;24.90;99.90
14357;DHT22;7262;48.764;9.166;2023-07-16T18:01:17;24.90;99.90
14357;DHT22;7262;48.764;9.166;2023-07-16T18:03:44;24.70;99.90
14357;DHT22;7262;48.764;9.166;2023-07-16T18:06:11;24.70;99.90
14357;DHT22;7262;48.764;9.166;2023-07-16T18:08:38;24.70;99.90
14357;DHT22;7262;48.764;9.166;2023-07-16T18:11:07;24.70;99.90
14357;DHT22;7262;48.764;9.166;2023-07-16T18:13:34;24.60;99.90
14357;DHT22;7262;48.764;9.166;2023-07-16T18:16:04;24.50;99.90
14357;DHT22;7262;48.764;9.166;2023-07-16T18:18:33;24.50;99.90
14357;DHT22;7262;48.764;9.166;2023-07-16T18:21:00;24.40;99.90
14357;DHT22;7262;48.764;9.166;2023-07-16T18:23:26;24.40;99.90
14357;DHT22;7262;48.764;9.166;2023-07-16T18:25:53;24.40;99.90
14357;DHT22;7262;48.764;9.166;2023-07-16T18:28:20;24.30;99.90
14357;DHT22;7262;48.764;9.166;2023-07-16T18:30:47;24.10;99.90
14357;DHT22;7262;48.764;9.166;2023-07-16T18:33:18;24.00;99.90
14357;DHT22;7262;48.764;9.166;2023-07-16T18:35:45;24.00;99.90
14357;DHT22;7262;48.764;9.166;2023-07-16T18:38:14;24.00;99.90
14357;DHT22;7262;48.764;9.166;2023-07-16T18:40:42;24.00;99.90
14357;DHT22;7262;48.764;9.166;2023-07-16T18:43:10;24.00;99.90
14357;DHT22;7262;48.764;9.166;2023-07-16T18:45:37;24.00;99.90
14357;DHT22;7262;48.764;9.166;2023-07-16T18:48:05;23.90;99.90
14357;DHT22;7262;48.764;9.166;2023-07-16T18:50:34;23.90;99.90
14357;DHT22;7262;48.764;9.166;2023-07-16T18:53:01;23.70;99.90
14357;DHT22;7262;48.764;9.166;2023-07-16T18:55:29;23.70;99.90
14357;DHT22;7262;48.764;9.166;2023-07-16T18:57:57;23.60;99.90
14357;DHT22;7262;48.764;9.166;2023-07-16T19:00:24;23.60;99.90
14357;DHT22;7262;48.764;9.166;2023-07-16T19:02:51;23.50;99.90